createdAt,value
2023-02-11T00:00:52.045Z,20.10
2023-02-11T00:03:22.450Z,25.23
2023-02-11T00:06:03.157Z,27.30
2023-02-11T00:08:30.456Z,26.13
2023-02-11T00:11:03.695Z,29.80
2023-02-11T00:13:30.363Z,29.53
2023-02-11T00:15:56.768Z,25.40
2023-02-11T00:18:23.882Z,23.57
2023-02-11T00:20:51.641Z,25.13
2023-02-11T00:23:19.448Z,29.63
2023-02-11T00:25:46.176Z,26.20
2023-02-11T00:28:12.966Z,28.73
2023-02-11T00:30:40.863Z,25.50
2023-02-11T00:33:08.248Z,26.07
2023-02-11T00:35:39.311Z,26.30
2023-02-11T00:38:08.110Z,19.63
2023-02-11T00:40:35.046Z,27.57
2023-02-11T00:43:05.364Z,37.63
2023-02-11T00:45:33.022Z,23.57
2023-02-11T00:48:01.074Z,26.07
2023-02-11T00:50:27.935Z,30.50
2023-02-11T00:52:55.926Z,26.50
2023-02-11T00:55:22.801Z,22.23
2023-02-11T00:57:54.106Z,21.03
2023-02-11T01:00:23.178Z,23.17
2023-02-11T01:02:49.927Z,22.87
2023-02-11T01:05:16.777Z,22.53
2023-02-11T01:07:43.542Z,23.83
2023-02-11T01:10:10.596Z,28.43
2023-02-11T01:12:38.950Z,23.13
2023-02-11T01:15:06.159Z,24.70
2023-02-11T01:17:34.761Z,22.03
2023-02-11T01:20:04.061Z,24.23
2023-02-11T01:22:30.577Z,25.60
2023-02-11T01:24:57.029Z,26.83
2023-02-11T01:27:24.583Z,29.47
2023-02-11T01:29:51.117Z,25.93
2023-02-11T01:32:22.440Z,22.47
2023-02-11T01:34:50.476Z,22.17
2023-02-11T01:37:19.241Z,22.97
2023-02-11T01:39:49.510Z,23.27
2023-02-11T01:42:19.219Z,26.13
2023-02-11T01:44:49.534Z,25.13
2023-02-11T01:47:16.184Z,29.20
2023-02-11T01:49:50.336Z,27.17
2023-02-11T01:52:20.106Z,23.90
2023-02-11T01:55:07.935Z,23.53
2023-02-11T01:57:35.397Z,25.43
2023-02-11T02:00:08.480Z,22.90
2023-02-11T02:02:44.315Z,23.57
2023-02-11T02:05:39.923Z,26.57
2023-02-11T02:08:16.162Z,25.37
2023-02-11T02:10:46.235Z,21.63
2023-02-11T02:13:14.314Z,28.20
2023-02-11T02:15:52.952Z,21.77
2023-02-11T02:18:41.802Z,20.93
2023-02-11T02:21:21.504Z,26.67
2023-02-11T02:23:55.017Z,21.30
2023-02-11T02:26:27.404Z,22.73
2023-02-11T02:29:13.535Z,28.10
2023-02-11T02:31:52.689Z,25.73
2023-02-11T02:34:27.076Z,29.40
2023-02-11T02:37:18.117Z,26.37
2023-02-11T02:39:45.429Z,20.60
2023-02-11T02:42:13.557Z,24.20
2023-02-11T02:44:39.931Z,20.77
2023-02-11T02:47:10.119Z,24.73
2023-02-11T02:49:36.685Z,22.47
2023-02-11T02:52:15.840Z,19.93
2023-02-11T02:55:05.717Z,30.73
2023-02-11T02:57:43.184Z,26.43
2023-02-11T03:00:14.952Z,25.87
2023-02-11T03:03:06.031Z,21.00
2023-02-11T03:05:35.398Z,26.07
2023-02-11T03:08:22.353Z,27.57
2023-02-11T03:10:51.029Z,20.83
2023-02-11T03:13:19.632Z,27.67
2023-02-11T03:15:50.152Z,24.40
2023-02-11T03:18:18.631Z,23.60
2023-02-11T03:20:47.830Z,25.90
2023-02-11T03:23:18.139Z,22.20
2023-02-11T03:25:52.727Z,26.83
2023-02-11T03:28:24.722Z,26.70
2023-02-11T03:31:09.173Z,25.00
2023-02-11T03:33:43.723Z,26.00
2023-02-11T03:36:15.370Z,30.40
2023-02-11T03:38:52.316Z,29.77
2023-02-11T03:41:21.483Z,23.20
2023-02-11T03:43:55.168Z,20.20
2023-02-11T03:46:23.803Z,26.60
2023-02-11T03:48:53.628Z,24.90
2023-02-11T03:51:24.835Z,21.07
2023-02-11T03:53:52.662Z,28.33
2023-02-11T03:56:23.063Z,29.63
2023-02-11T03:58:51.841Z,31.37
2023-02-11T04:01:18.292Z,30.73
2023-02-11T04:03:48.051Z,24.50
2023-02-11T04:06:17.780Z,28.03
2023-02-11T04:08:47.765Z,24.53
2023-02-11T04:11:17.085Z,24.60
2023-02-11T04:13:43.971Z,24.97
2023-02-11T04:16:12.851Z,24.80
2023-02-11T04:18:41.022Z,26.23
2023-02-11T04:21:08.078Z,22.17
2023-02-11T04:23:34.924Z,21.73
2023-02-11T04:26:01.566Z,23.87
2023-02-11T04:28:29.677Z,26.60
2023-02-11T04:30:57.797Z,21.53
2023-02-11T04:33:27.016Z,25.03
2023-02-11T04:35:56.582Z,19.70
2023-02-11T04:38:24.095Z,21.20
2023-02-11T04:40:50.704Z,23.40
2023-02-11T04:43:17.426Z,23.53
2023-02-11T04:45:46.595Z,22.70
2023-02-11T04:48:15.809Z,21.00
2023-02-11T04:50:44.180Z,28.20
2023-02-11T04:53:12.719Z,21.23
2023-02-11T04:55:39.954Z,23.73
2023-02-11T04:58:08.216Z,25.30
2023-02-11T05:00:35.667Z,30.80
2023-02-11T05:03:03.798Z,23.50
2023-02-11T05:05:34.580Z,20.53
2023-02-11T05:08:00.981Z,21.23
2023-02-11T05:10:28.061Z,25.87
2023-02-11T05:12:56.957Z,22.50
2023-02-11T05:15:24.136Z,23.43
2023-02-11T05:17:50.514Z,21.90
2023-02-11T05:20:17.042Z,22.70
2023-02-11T05:22:43.589Z,21.70
2023-02-11T05:25:09.928Z,25.00
2023-02-11T05:27:36.393Z,19.50
2023-02-11T05:30:02.777Z,21.27
2023-02-11T05:32:30.036Z,19.67
2023-02-11T05:37:41.930Z,17.43
2023-02-11T05:40:09.254Z,26.43
2023-02-11T05:42:35.823Z,26.70
2023-02-11T05:45:02.638Z,19.20
2023-02-11T05:47:29.234Z,19.03
2023-02-11T05:49:55.586Z,22.43
2023-02-11T05:52:22.465Z,25.57
2023-02-11T05:54:51.282Z,20.63
2023-02-11T05:57:19.797Z,22.93
2023-02-11T05:59:48.165Z,23.60
2023-02-11T06:02:15.045Z,23.77
2023-02-11T06:04:44.758Z,22.03
2023-02-11T06:07:11.364Z,23.03
2023-02-11T06:09:39.671Z,24.53
2023-02-11T06:12:06.171Z,22.63
2023-02-11T06:14:37.689Z,20.63
2023-02-11T06:17:05.682Z,23.73
2023-02-11T06:19:34.629Z,21.07
2023-02-11T06:22:02.620Z,20.63
2023-02-11T06:24:54.992Z,22.90
2023-02-11T06:27:20.554Z,21.87
2023-02-11T06:29:47.869Z,19.33
2023-02-11T06:32:36.866Z,18.83
2023-02-11T06:35:04.895Z,21.15
2023-02-11T06:37:31.881Z,22.03
2023-02-11T06:40:00.646Z,20.47
2023-02-11T06:42:29.605Z,26.70
2023-02-11T06:44:57.477Z,17.50
2023-02-11T06:47:24.225Z,22.17
2023-02-11T06:49:50.761Z,22.17
2023-02-11T06:52:18.314Z,29.10
2023-02-11T06:54:45.687Z,20.53
2023-02-11T06:57:13.796Z,19.67
2023-02-11T06:59:40.737Z,22.43
2023-02-11T07:02:10.864Z,15.17
2023-02-11T07:04:38.709Z,24.53
2023-02-11T07:07:09.416Z,18.27
2023-02-11T07:09:35.803Z,16.73
2023-02-11T07:12:02.284Z,21.53
2023-02-11T07:14:31.189Z,18.77
2023-02-11T07:16:59.372Z,30.33
2023-02-11T07:19:26.212Z,24.47
2023-02-11T07:21:55.942Z,26.10
2023-02-11T07:24:25.441Z,18.93
2023-02-11T07:26:53.350Z,17.03
2023-02-11T07:29:19.911Z,21.10
2023-02-11T07:31:47.022Z,22.03
2023-02-11T07:34:13.734Z,21.43
2023-02-11T07:36:44.990Z,21.03
2023-02-11T07:39:11.370Z,19.37
2023-02-11T07:41:44.600Z,24.73
2023-02-11T07:44:11.379Z,20.10
2023-02-11T07:46:45.080Z,16.83
2023-02-11T07:49:12.813Z,22.90
2023-02-11T07:51:40.529Z,16.43
2023-02-11T07:54:06.978Z,19.33
2023-02-11T07:56:38.460Z,16.13
2023-02-11T07:59:05.911Z,17.20
2023-02-11T08:01:35.030Z,19.80
2023-02-11T08:04:05.804Z,20.43
2023-02-11T08:06:33.904Z,21.23
2023-02-11T08:09:05.805Z,19.93
2023-02-11T08:11:34.123Z,17.90
2023-02-11T08:14:03.268Z,20.53
2023-02-11T08:16:30.990Z,17.33
2023-02-11T08:18:58.309Z,18.53
2023-02-11T08:21:28.534Z,20.93
2023-02-11T08:23:56.559Z,17.67
2023-02-11T08:26:29.499Z,19.23
2023-02-11T08:28:59.334Z,17.93
2023-02-11T08:31:27.460Z,16.70
2023-02-11T08:33:58.601Z,19.13
2023-02-11T08:36:30.133Z,28.43
2023-02-11T08:39:15.939Z,22.83
2023-02-11T08:41:43.053Z,15.23
2023-02-11T08:44:12.806Z,22.40
2023-02-11T08:46:42.814Z,16.67
2023-02-11T08:49:09.160Z,17.60
2023-02-11T08:51:37.041Z,18.33
2023-02-11T08:54:07.216Z,14.40
2023-02-11T08:56:35.441Z,22.97
2023-02-11T08:59:02.148Z,18.13
2023-02-11T09:01:31.670Z,16.93
2023-02-11T09:03:58.666Z,19.50
2023-02-11T09:06:26.926Z,21.47
2023-02-11T09:08:57.789Z,23.70
2023-02-11T09:11:30.460Z,18.00
2023-02-11T09:13:59.406Z,20.80
2023-02-11T09:16:31.665Z,17.40
2023-02-11T09:18:59.131Z,27.57
2023-02-11T09:21:25.733Z,18.30
2023-02-11T09:23:55.811Z,19.40
2023-02-11T09:26:29.624Z,18.87
2023-02-11T09:29:03.570Z,23.50
2023-02-11T09:31:31.073Z,16.93
2023-02-11T09:34:00.729Z,21.33
2023-02-11T09:36:29.793Z,21.37
2023-02-11T09:38:59.203Z,19.03
2023-02-11T09:41:28.391Z,23.20
2023-02-11T09:44:00.823Z,17.93
2023-02-11T09:46:36.585Z,21.93
2023-02-11T09:49:04.959Z,19.40
2023-02-11T09:51:49.594Z,21.40
2023-02-11T09:54:26.882Z,16.83
2023-02-11T09:56:54.462Z,19.05
2023-02-11T09:59:21.914Z,20.00
2023-02-11T10:01:50.686Z,20.50
2023-02-11T10:04:27.039Z,19.83
2023-02-11T10:07:03.955Z,20.52
2023-02-11T10:09:39.475Z,22.67
2023-02-11T10:12:25.661Z,21.60
2023-02-11T10:15:23.100Z,22.10
2023-02-11T10:17:54.380Z,24.37
2023-02-11T10:20:28.007Z,22.13
2023-02-11T10:22:59.752Z,22.43
2023-02-11T10:25:42.676Z,23.10
2023-02-11T10:28:15.881Z,20.50
2023-02-11T10:31:00.414Z,24.27
2023-02-11T10:33:32.523Z,17.53
2023-02-11T10:36:02.092Z,21.97
2023-02-11T10:38:28.470Z,18.37
2023-02-11T10:40:54.868Z,18.53
2023-02-11T10:43:24.735Z,24.97
2023-02-11T10:45:52.905Z,18.63
2023-02-11T10:48:43.690Z,19.40
2023-02-11T10:51:14.754Z,22.67
2023-02-11T10:53:43.816Z,24.87
2023-02-11T10:56:22.322Z,26.20
2023-02-11T10:58:57.531Z,17.93
2023-02-11T11:01:38.496Z,19.77
2023-02-11T11:04:06.099Z,22.10
2023-02-11T11:06:34.878Z,20.53
2023-02-11T11:09:02.060Z,20.77
2023-02-11T11:11:29.431Z,20.17
2023-02-11T11:13:59.541Z,23.63
2023-02-11T11:16:27.837Z,18.70
2023-02-11T11:19:14.236Z,17.13
2023-02-11T11:21:51.223Z,21.23
2023-02-11T11:24:27.824Z,19.57
2023-02-11T11:26:58.682Z,20.97
2023-02-11T11:29:27.032Z,21.57
2023-02-11T11:32:00.796Z,27.30
2023-02-11T11:34:33.373Z,20.60
2023-02-11T11:37:09.754Z,23.17
2023-02-11T11:39:37.314Z,18.97
2023-02-11T11:42:22.048Z,22.57
2023-02-11T11:45:08.060Z,19.27
2023-02-11T11:47:41.296Z,18.17
2023-02-11T11:50:14.434Z,21.77
2023-02-11T11:52:43.834Z,19.90
2023-02-11T11:55:20.790Z,18.83
2023-02-11T11:57:52.195Z,18.75
2023-02-11T12:00:29.380Z,24.80
2023-02-11T12:03:15.062Z,21.97
2023-02-11T12:05:50.276Z,17.20
2023-02-11T12:08:30.169Z,16.03
2023-02-11T12:11:19.505Z,20.00
2023-02-11T12:13:53.814Z,21.87
2023-02-11T12:16:31.359Z,16.58
2023-02-11T12:19:00.809Z,21.13
2023-02-11T12:21:39.403Z,18.23
2023-02-11T12:24:09.882Z,18.67
2023-02-11T12:26:38.505Z,17.53
2023-02-11T12:29:12.825Z,17.70
2023-02-11T12:31:47.824Z,22.33
2023-02-11T12:34:33.969Z,21.37
2023-02-11T12:37:17.217Z,20.80
2023-02-11T12:39:54.363Z,17.30
2023-02-11T12:43:05.316Z,15.93
2023-02-11T12:45:41.535Z,21.13
2023-02-11T12:48:13.058Z,19.98
2023-02-11T12:51:07.865Z,14.13
2023-02-11T12:53:45.288Z,18.60
2023-02-11T12:56:24.462Z,16.93
2023-02-11T12:58:56.963Z,19.10
2023-02-11T13:01:27.055Z,20.00
2023-02-11T13:04:00.359Z,16.70
2023-02-11T13:06:34.674Z,18.83
2023-02-11T13:09:05.766Z,18.10
2023-02-11T13:11:40.909Z,18.60
2023-02-11T13:14:22.945Z,19.38
2023-02-11T13:16:50.917Z,17.70
2023-02-11T13:19:31.514Z,14.00
2023-02-11T13:22:04.446Z,15.10
2023-02-11T13:24:57.047Z,19.57
2023-02-11T13:27:32.473Z,15.70
2023-02-11T13:30:24.993Z,22.33
2023-02-11T13:33:11.712Z,14.70
2023-02-11T13:35:47.032Z,16.25
2023-02-11T13:38:28.207Z,16.67
2023-02-11T13:41:05.827Z,15.80
2023-02-11T13:43:38.081Z,20.53
2023-02-11T13:46:06.586Z,17.13
2023-02-11T13:48:36.892Z,15.07
2023-02-11T13:51:11.241Z,13.77
2023-02-11T13:54:04.385Z,18.03
2023-02-11T13:56:33.417Z,14.37
2023-02-11T13:59:02.292Z,14.77
2023-02-11T14:02:08.084Z,15.00
2023-02-11T14:04:53.262Z,16.57
2023-02-11T14:07:49.181Z,14.73
2023-02-11T14:10:34.790Z,15.40
2023-02-11T14:13:05.754Z,12.73
2023-02-11T14:15:40.216Z,15.70
2023-02-11T14:18:35.263Z,14.60
2023-02-11T14:21:13.021Z,17.70
2023-02-11T14:23:45.303Z,15.67
2023-02-11T14:26:26.958Z,17.63
2023-02-11T14:28:53.901Z,15.37
2023-02-11T14:31:35.443Z,11.93
2023-02-11T14:34:09.060Z,19.30
2023-02-11T14:36:55.122Z,18.00
2023-02-11T14:39:40.317Z,14.97
2023-02-11T14:42:15.086Z,16.13
2023-02-11T14:44:42.071Z,12.73
2023-02-11T14:47:19.876Z,15.53
2023-02-11T14:49:49.827Z,13.57
2023-02-11T14:52:33.011Z,13.53
2023-02-11T14:55:10.406Z,13.03
2023-02-11T14:57:43.104Z,13.60
2023-02-11T15:00:22.800Z,15.97
2023-02-11T15:02:49.370Z,13.23
2023-02-11T15:05:26.369Z,12.63
2023-02-11T15:07:55.765Z,11.00
2023-02-11T15:10:36.184Z,13.90
2023-02-11T15:13:04.370Z,11.87
2023-02-11T15:15:33.005Z,12.87
2023-02-11T15:18:01.751Z,11.60
2023-02-11T15:20:32.064Z,15.57
2023-02-11T15:23:02.967Z,11.80
2023-02-11T15:25:33.060Z,13.17
2023-02-11T15:28:00.795Z,11.70
2023-02-11T15:30:29.523Z,11.17
2023-02-11T15:33:02.754Z,12.57
2023-02-11T15:35:37.941Z,12.90
2023-02-11T15:38:05.680Z,13.05
2023-02-11T15:40:33.505Z,14.13
2023-02-11T15:43:10.571Z,13.47
2023-02-11T15:46:04.443Z,12.93
2023-02-11T15:48:45.006Z,13.70
2023-02-11T15:51:12.675Z,10.73
2023-02-11T15:53:42.452Z,10.87
2023-02-11T15:56:17.362Z,10.30
2023-02-11T15:58:45.465Z,9.90
2023-02-11T16:01:12.958Z,12.23
2023-02-11T16:03:43.095Z,11.50
2023-02-11T16:06:16.475Z,11.87
2023-02-11T16:08:44.124Z,9.10
2023-02-11T16:11:26.647Z,10.17
2023-02-11T16:13:54.404Z,10.37
2023-02-11T16:16:28.064Z,11.93
2023-02-11T16:19:05.644Z,16.87
2023-02-11T16:21:38.901Z,12.13
2023-02-11T16:24:07.525Z,10.43
2023-02-11T16:26:44.586Z,9.10
2023-02-11T16:29:16.822Z,12.43
2023-02-11T16:31:50.173Z,11.00
2023-02-11T16:34:23.502Z,11.17
2023-02-11T16:36:52.023Z,9.97
2023-02-11T16:39:22.830Z,11.87
2023-02-11T16:41:53.701Z,8.57
2023-02-11T16:44:20.124Z,11.13
2023-02-11T16:46:48.222Z,13.57
2023-02-11T16:49:25.038Z,9.07
2023-02-11T16:51:57.095Z,12.10
2023-02-11T16:54:25.053Z,11.97
2023-02-11T16:56:54.876Z,11.03
2023-02-11T16:59:23.259Z,13.93
2023-02-11T17:01:51.993Z,12.37
2023-02-11T17:04:21.996Z,13.40
2023-02-11T17:06:49.999Z,17.00
2023-02-11T17:09:19.502Z,12.60
2023-02-11T17:11:50.264Z,15.47
2023-02-11T17:14:18.758Z,11.20
2023-02-11T17:16:46.366Z,10.23
2023-02-11T17:19:14.376Z,13.07
2023-02-11T17:21:42.979Z,12.07
2023-02-11T17:24:09.602Z,12.87
2023-02-11T17:26:43.003Z,15.80
2023-02-11T17:29:12.667Z,11.90
2023-02-11T17:31:39.916Z,12.93
2023-02-11T17:34:07.538Z,11.33
2023-02-11T17:36:35.312Z,14.77
2023-02-11T17:39:07.676Z,12.27
2023-02-11T17:41:37.037Z,10.63
2023-02-11T17:44:05.026Z,12.47
2023-02-11T17:46:37.089Z,12.97
2023-02-11T17:49:06.376Z,13.13
2023-02-11T17:51:38.547Z,13.53
2023-02-11T17:54:06.963Z,13.30
2023-02-11T17:56:34.484Z,17.30
2023-02-11T17:59:05.616Z,15.57
2023-02-11T18:01:32.977Z,12.93
2023-02-11T18:03:59.422Z,15.63
2023-02-11T18:06:26.904Z,15.57
2023-02-11T18:08:56.848Z,16.73
2023-02-11T18:11:25.161Z,15.07
2023-02-11T18:13:56.112Z,13.47
2023-02-11T18:16:23.920Z,13.97
2023-02-11T18:18:50.334Z,13.93
2023-02-11T18:21:18.648Z,17.37
2023-02-11T18:23:46.073Z,12.73
2023-02-11T18:26:19.152Z,14.30
2023-02-11T18:28:46.551Z,15.10
2023-02-11T18:31:14.141Z,17.30
2023-02-11T18:33:42.596Z,18.73
2023-02-11T18:36:14.713Z,14.40
2023-02-11T18:38:41.702Z,12.73
2023-02-11T18:41:08.908Z,16.10
2023-02-11T18:43:36.057Z,13.23
2023-02-11T18:46:06.271Z,16.63
2023-02-11T18:48:34.327Z,12.77
2023-02-11T18:51:01.695Z,17.33
2023-02-11T18:53:30.973Z,14.13
2023-02-11T18:56:01.937Z,15.03
2023-02-11T18:58:28.366Z,19.37
2023-02-11T19:00:56.527Z,15.80
2023-02-11T19:03:23.027Z,17.17
2023-02-11T19:05:49.833Z,15.63
2023-02-11T19:08:18.661Z,20.23
2023-02-11T19:10:45.873Z,15.10
2023-02-11T19:13:16.240Z,14.17
2023-02-11T19:15:43.908Z,15.30
2023-02-11T19:18:12.060Z,14.97
2023-02-11T19:20:42.797Z,18.87
2023-02-11T19:23:09.532Z,13.07
2023-02-11T19:25:36.092Z,17.87
2023-02-11T19:28:04.135Z,18.40
2023-02-11T19:30:31.023Z,15.97
2023-02-11T19:32:57.688Z,15.77
2023-02-11T19:35:27.792Z,15.17
2023-02-11T19:37:56.640Z,14.00
2023-02-11T19:40:23.399Z,14.03
2023-02-11T19:42:49.802Z,14.63
2023-02-11T19:45:18.915Z,14.73
2023-02-11T19:47:49.421Z,13.93
2023-02-11T19:50:19.958Z,16.13
2023-02-11T19:52:46.632Z,13.33
2023-02-11T19:55:22.025Z,14.07
2023-02-11T19:57:49.630Z,15.20
2023-02-11T20:00:16.238Z,14.30
2023-02-11T20:02:43.961Z,13.10
2023-02-11T20:05:10.668Z,14.70
2023-02-11T20:07:37.084Z,17.07
2023-02-11T20:10:03.894Z,14.53
2023-02-11T20:12:32.856Z,16.07
2023-02-11T20:14:59.214Z,17.00
2023-02-11T20:17:25.590Z,14.23
2023-02-11T20:19:52.726Z,14.67
2023-02-11T20:22:19.201Z,14.03
2023-02-11T20:24:47.044Z,15.83
2023-02-11T20:27:14.217Z,13.13
2023-02-11T20:29:42.875Z,14.50
2023-02-11T20:32:11.002Z,15.67
2023-02-11T20:34:42.048Z,15.40
2023-02-11T20:37:12.678Z,14.87
2023-02-11T20:39:40.903Z,21.33
2023-02-11T20:42:15.992Z,14.93
2023-02-11T20:44:42.512Z,15.03
2023-02-11T20:47:09.862Z,17.30
2023-02-11T20:49:36.445Z,15.63
2023-02-11T20:52:03.854Z,17.87
2023-02-11T20:54:30.984Z,17.17
2023-02-11T20:57:06.916Z,13.60
2023-02-11T20:59:36.731Z,16.92
2023-02-11T21:02:06.377Z,14.77
2023-02-11T21:04:33.287Z,21.33
2023-02-11T21:07:04.223Z,14.80
2023-02-11T21:09:34.524Z,15.67
2023-02-11T21:12:01.954Z,16.87
2023-02-11T21:14:28.609Z,15.37
2023-02-11T21:16:57.617Z,15.93
2023-02-11T21:19:26.580Z,16.43
2023-02-11T21:22:00.686Z,18.17
2023-02-11T21:24:27.755Z,14.63
2023-02-11T21:26:54.679Z,17.13
2023-02-11T21:29:21.753Z,18.07
2023-02-11T21:31:48.611Z,16.33
2023-02-11T21:34:17.950Z,20.90
2023-02-11T21:36:45.785Z,16.10
2023-02-11T21:39:13.595Z,13.50
2023-02-11T21:41:40.174Z,17.07
2023-02-11T21:44:08.931Z,16.73
2023-02-11T21:46:36.771Z,15.97
2023-02-11T21:49:06.491Z,16.13
2023-02-11T21:51:34.087Z,18.13
2023-02-11T21:54:01.619Z,16.63
2023-02-11T21:56:28.990Z,23.40
2023-02-11T21:58:56.567Z,18.50
2023-02-11T22:01:24.376Z,16.20
2023-02-11T22:03:52.142Z,19.40
2023-02-11T22:06:26.082Z,12.03
2023-02-11T22:08:54.465Z,16.77
2023-02-11T22:11:23.436Z,16.27
2023-02-11T22:13:54.966Z,18.90
2023-02-11T22:16:23.053Z,18.77
2023-02-11T22:18:51.380Z,17.40
2023-02-11T22:21:19.108Z,19.00
2023-02-11T22:23:47.010Z,20.17
2023-02-11T22:26:18.242Z,22.00
2023-02-11T22:28:45.140Z,21.40
2023-02-11T22:31:16.157Z,17.67
2023-02-11T22:33:45.195Z,15.40
2023-02-11T22:36:21.922Z,17.83
2023-02-11T22:38:50.250Z,20.10
2023-02-11T22:41:17.480Z,18.97
2023-02-11T22:43:45.109Z,19.77
2023-02-11T22:46:13.980Z,19.63
2023-02-11T22:48:40.884Z,21.27
2023-02-11T22:51:11.290Z,21.07
2023-02-11T22:53:37.922Z,15.00
2023-02-11T22:56:06.725Z,17.40
2023-02-11T22:58:36.580Z,20.90
2023-02-11T23:01:04.223Z,14.17
2023-02-11T23:03:31.576Z,16.73
2023-02-11T23:05:59.732Z,14.07
2023-02-11T23:08:33.854Z,16.13
2023-02-11T23:11:05.774Z,18.80
2023-02-11T23:13:35.184Z,21.77
2023-02-11T23:16:05.344Z,17.23
2023-02-11T23:18:34.658Z,20.50
2023-02-11T23:21:12.398Z,16.87
2023-02-11T23:23:39.672Z,16.43
2023-02-11T23:26:18.063Z,17.90
2023-02-11T23:28:50.601Z,18.97
2023-02-11T23:31:24.511Z,20.93
2023-02-11T23:33:51.598Z,19.40
2023-02-11T23:36:19.062Z,18.77
2023-02-11T23:38:47.357Z,22.67
2023-02-11T23:41:14.069Z,18.57
2023-02-11T23:43:41.071Z,20.37
2023-02-11T23:46:10.256Z,19.43
2023-02-11T23:48:39.060Z,25.53
2023-02-11T23:51:09.784Z,19.80
2023-02-11T23:53:37.163Z,15.70
2023-02-11T23:56:08.978Z,16.20
2023-02-11T23:58:35.624Z,17.43
